Main page
METAR-TAF:

METAR-TAF

Airports :

RAF Fairford

Fairford, England

latitude: 51-41N, longitude: 001-47W, elevation: 87 m

Current weather observation

The report was made 53 minutes ago, at 15:56 UTC
Wind 3 kt from the Northeast
Temperature 12°C
Humidity 88%
Pressure 1009 hPa
Visibility 10 km or more
Few clouds at a height of 6000 ft

METAR: EGVA 231556Z AUTO 05003KT 9999 FEW060 12/10 A2980 RMK AO2 SLP096 T01230104 $

Time: 17:49 (16:49 UTC)


TAF: missing

Weather observations and forecasts of more than 4000 airports (METAR and TAF reports).

The available stations are represented by yellow and red dots on the map.

Hover mouse over dot to see the name of the station.

Then click to see weather observations and forecasts.

To change the map : click on the green buttons with a black cross to zoom in, on the green button with a dash to zoom out, or on the green arrows for adjacent maps.


METAR-TAF: